KTBN/TBN METAR and TAF weather

Enter ICAO airport designator
Station Type Date Time Source
KTBN METAR 2020/01/27 16:56 UTC NOAA

KTBN 271656Z AUTO 24004KT 10SM SCT080 09/01 A3000 RMK AO2 SLPNO T00860013 $


Station Type Date Time Source
KTBN Decoded METAR 2020/01/27 16:56 UTC NOAA

Fort Leonard Wood, MO, United States (KTBN) 37-44N 092-08W
Jan 27, 2020 - 11:56 AM EST / 2020.01.27 1656 UTC
Wind: from the WSW (240 degrees) at 5 MPH (4 KT):0
Visibility: 10 mile(s):0
Sky conditions: partly cloudy
Temperature: 47.5 F (8.6 C)
Dew Point: 34.3 F (1.3 C)
Relative Humidity: 60%
Pressure (altimeter): 30 in. Hg (1015 hPa)
ob: KTBN 271656Z AUTO 24004KT 10SM SCT080 09/01 A3000 RMK AO2 SLPNO T00860013
cycle: 17

Station Type Date Time Source
KTBN TAF UTC NOAA

Error!

Example: see airport list